sensor_id;sensor_type;location;lat;lon;timestamp;P1;durP1;ratioP1;P2;durP2;ratioP2
73919;SDS011;62266;53.348;-1.496;2022-12-07T00:01:43;5.70;;;1.50;;
73919;SDS011;62266;53.348;-1.496;2022-12-07T00:04:10;3.70;;;1.27;;
73919;SDS011;62266;53.348;-1.496;2022-12-07T00:06:39;6.97;;;1.70;;
73919;SDS011;62266;53.348;-1.496;2022-12-07T00:09:11;2.77;;;1.67;;
73919;SDS011;62266;53.348;-1.496;2022-12-07T00:11:38;3.03;;;1.13;;
73919;SDS011;62266;53.348;-1.496;2022-12-07T00:14:06;4.68;;;1.33;;
73919;SDS011;62266;53.348;-1.496;2022-12-07T00:16:35;4.47;;;1.55;;
73919;SDS011;62266;53.348;-1.496;2022-12-07T00:19:02;3.47;;;1.33;;
73919;SDS011;62266;53.348;-1.496;2022-12-07T00:21:30;5.85;;;1.65;;
73919;SDS011;62266;53.348;-1.496;2022-12-07T00:23:58;7.38;;;2.17;;
73919;SDS011;62266;53.348;-1.496;2022-12-07T00:26:25;3.03;;;1.35;;
73919;SDS011;62266;53.348;-1.496;2022-12-07T00:28:56;6.03;;;1.50;;
73919;SDS011;62266;53.348;-1.496;2022-12-07T00:31:24;4.03;;;1.73;;
73919;SDS011;62266;53.348;-1.496;2022-12-07T00:33:51;3.17;;;1.30;;
73919;SDS011;62266;53.348;-1.496;2022-12-07T00:36:21;3.50;;;1.35;;
73919;SDS011;62266;53.348;-1.496;2022-12-07T00:38:48;3.75;;;1.45;;
73919;SDS011;62266;53.348;-1.496;2022-12-07T00:41:14;5.70;;;1.63;;
73919;SDS011;62266;53.348;-1.496;2022-12-07T00:43:41;5.03;;;1.02;;
73919;SDS011;62266;53.348;-1.496;2022-12-07T00:46:08;4.55;;;1.20;;
73919;SDS011;62266;53.348;-1.496;2022-12-07T00:48:34;7.63;;;1.30;;
73919;SDS011;62266;53.348;-1.496;2022-12-07T00:51:00;2.78;;;1.10;;
73919;SDS011;62266;53.348;-1.496;2022-12-07T00:53:26;3.65;;;1.17;;
73919;SDS011;62266;53.348;-1.496;2022-12-07T00:55:52;7.30;;;1.50;;
73919;SDS011;62266;53.348;-1.496;2022-12-07T00:58:19;4.47;;;1.70;;
73919;SDS011;62266;53.348;-1.496;2022-12-07T01:00:44;3.08;;;1.05;;
73919;SDS011;62266;53.348;-1.496;2022-12-07T01:03:11;8.90;;;1.42;;
73919;SDS011;62266;53.348;-1.496;2022-12-07T01:05:38;5.37;;;1.37;;
73919;SDS011;62266;53.348;-1.496;2022-12-07T01:08:04;3.15;;;1.30;;
73919;SDS011;62266;53.348;-1.496;2022-12-07T01:10:30;6.07;;;1.30;;
73919;SDS011;62266;53.348;-1.496;2022-12-07T01:12:58;5.95;;;1.50;;
73919;SDS011;62266;53.348;-1.496;2022-12-07T01:15:24;5.30;;;1.43;;
73919;SDS011;62266;53.348;-1.496;2022-12-07T01:17:51;2.78;;;1.02;;
73919;SDS011;62266;53.348;-1.496;2022-12-07T01:20:16;3.87;;;1.10;;
73919;SDS011;62266;53.348;-1.496;2022-12-07T01:22:42;3.83;;;0.95;;
73919;SDS011;62266;53.348;-1.496;2022-12-07T01:25:09;5.50;;;1.20;;
73919;SDS011;62266;53.348;-1.496;2022-12-07T01:27:35;6.20;;;1.50;;
73919;SDS011;62266;53.348;-1.496;2022-12-07T01:30:03;4.60;;;0.98;;
73919;SDS011;62266;53.348;-1.496;2022-12-07T01:32:29;6.18;;;1.42;;
73919;SDS011;62266;53.348;-1.496;2022-12-07T01:34:55;4.95;;;1.38;;
73919;SDS011;62266;53.348;-1.496;2022-12-07T01:37:21;6.17;;;1.87;;
73919;SDS011;62266;53.348;-1.496;2022-12-07T01:39:50;5.80;;;1.07;;
73919;SDS011;62266;53.348;-1.496;2022-12-07T01:42:18;5.33;;;1.20;;
73919;SDS011;62266;53.348;-1.496;2022-12-07T01:47:50;7.30;;;1.65;;
73919;SDS011;62266;53.348;-1.496;2022-12-07T01:50:18;4.97;;;1.07;;
73919;SDS011;62266;53.348;-1.496;2022-12-07T01:52:44;6.38;;;1.05;;
73919;SDS011;62266;53.348;-1.496;2022-12-07T01:55:14;7.32;;;1.23;;
73919;SDS011;62266;53.348;-1.496;2022-12-07T01:57:44;9.05;;;1.40;;
73919;SDS011;62266;53.348;-1.496;2022-12-07T02:00:12;2.78;;;1.15;;
73919;SDS011;62266;53.348;-1.496;2022-12-07T02:05:32;5.75;;;1.10;;
73919;SDS011;62266;53.348;-1.496;2022-12-07T02:08:04;5.35;;;1.02;;
73919;SDS011;62266;53.348;-1.496;2022-12-07T02:10:31;4.20;;;0.73;;
73919;SDS011;62266;53.348;-1.496;2022-12-07T02:18:19;5.25;;;1.05;;
73919;SDS011;62266;53.348;-1.496;2022-12-07T02:26:47;3.17;;;0.98;;
73919;SDS011;62266;53.348;-1.496;2022-12-07T02:32:03;6.75;;;0.82;;
73919;SDS011;62266;53.348;-1.496;2022-12-07T02:35:00;2.58;;;0.60;;
73919;SDS011;62266;53.348;-1.496;2022-12-07T02:43:13;4.57;;;0.70;;
73919;SDS011;62266;53.348;-1.496;2022-12-07T02:45:41;4.85;;;0.90;;
73919;SDS011;62266;53.348;-1.496;2022-12-07T02:48:08;7.82;;;0.90;;
73919;SDS011;62266;53.348;-1.496;2022-12-07T02:50:34;1.30;;;0.63;;
73919;SDS011;62266;53.348;-1.496;2022-12-07T02:53:00;3.40;;;0.75;;
73919;SDS011;62266;53.348;-1.496;2022-12-07T02:55:28;3.03;;;0.77;;
73919;SDS011;62266;53.348;-1.496;2022-12-07T02:58:06;3.17;;;0.90;;
73919;SDS011;62266;53.348;-1.496;2022-12-07T03:00:50;2.80;;;0.70;;
73919;SDS011;62266;53.348;-1.496;2022-12-07T03:03:22;7.15;;;0.90;;
73919;SDS011;62266;53.348;-1.496;2022-12-07T03:14:29;3.88;;;0.60;;
73919;SDS011;62266;53.348;-1.496;2022-12-07T03:17:08;3.22;;;0.68;;
73919;SDS011;62266;53.348;-1.496;2022-12-07T03:19:38;2.17;;;0.80;;
73919;SDS011;62266;53.348;-1.496;2022-12-07T03:22:07;3.90;;;0.50;;
73919;SDS011;62266;53.348;-1.496;2022-12-07T03:24:47;3.55;;;0.80;;
73919;SDS011;62266;53.348;-1.496;2022-12-07T03:27:40;2.85;;;1.00;;
73919;SDS011;62266;53.348;-1.496;2022-12-07T03:33:13;3.58;;;1.30;;
73919;SDS011;62266;53.348;-1.496;2022-12-07T03:35:50;2.77;;;0.70;;
73919;SDS011;62266;53.348;-1.496;2022-12-07T03:38:29;1.45;;;0.70;;
73919;SDS011;62266;53.348;-1.496;2022-12-07T03:41:18;4.03;;;0.50;;
73919;SDS011;62266;53.348;-1.496;2022-12-07T03:43:45;4.00;;;0.82;;
73919;SDS011;62266;53.348;-1.496;2022-12-07T03:57:13;6.03;;;0.80;;
73919;SDS011;62266;53.348;-1.496;2022-12-07T03:59:39;5.53;;;1.05;;
73919;SDS011;62266;53.348;-1.496;2022-12-07T04:02:06;1.50;;;0.70;;
73919;SDS011;62266;53.348;-1.496;2022-12-07T04:04:32;1.95;;;0.80;;
73919;SDS011;62266;53.348;-1.496;2022-12-07T04:06:58;2.45;;;0.80;;
73919;SDS011;62266;53.348;-1.496;2022-12-07T04:09:24;3.13;;;0.90;;
73919;SDS011;62266;53.348;-1.496;2022-12-07T04:11:49;3.15;;;1.00;;
73919;SDS011;62266;53.348;-1.496;2022-12-07T04:14:15;4.82;;;0.82;;
73919;SDS011;62266;53.348;-1.496;2022-12-07T04:16:44;4.00;;;0.80;;
73919;SDS011;62266;53.348;-1.496;2022-12-07T04:19:27;3.93;;;1.00;;
73919;SDS011;62266;53.348;-1.496;2022-12-07T04:21:55;2.17;;;0.80;;
73919;SDS011;62266;53.348;-1.496;2022-12-07T04:24:21;2.25;;;0.75;;
73919;SDS011;62266;53.348;-1.496;2022-12-07T04:26:47;3.55;;;0.70;;
73919;SDS011;62266;53.348;-1.496;2022-12-07T04:29:13;1.20;;;0.63;;
73919;SDS011;62266;53.348;-1.496;2022-12-07T04:31:39;2.28;;;0.60;;
73919;SDS011;62266;53.348;-1.496;2022-12-07T04:34:05;2.67;;;0.80;;
73919;SDS011;62266;53.348;-1.496;2022-12-07T04:36:30;0.80;;;0.55;;
73919;SDS011;62266;53.348;-1.496;2022-12-07T04:38:56;3.00;;;0.63;;
73919;SDS011;62266;53.348;-1.496;2022-12-07T04:41:23;3.03;;;0.50;;
73919;SDS011;62266;53.348;-1.496;2022-12-07T04:44:02;3.67;;;0.80;;
73919;SDS011;62266;53.348;-1.496;2022-12-07T04:46:29;2.38;;;0.80;;
73919;SDS011;62266;53.348;-1.496;2022-12-07T04:48:56;2.45;;;1.10;;
73919;SDS011;62266;53.348;-1.496;2022-12-07T04:51:22;4.20;;;1.30;;
73919;SDS011;62266;53.348;-1.496;2022-12-07T04:53:49;5.10;;;1.27;;
73919;SDS011;62266;53.348;-1.496;2022-12-07T04:56:16;3.78;;;1.25;;
73919;SDS011;62266;53.348;-1.496;2022-12-07T04:58:42;4.43;;;1.25;;
73919;SDS011;62266;53.348;-1.496;2022-12-07T05:01:08;3.97;;;0.80;;
73919;SDS011;62266;53.348;-1.496;2022-12-07T05:03:35;3.83;;;1.05;;
73919;SDS011;62266;53.348;-1.496;2022-12-07T05:06:01;4.25;;;0.90;;
73919;SDS011;62266;53.348;-1.496;2022-12-07T05:08:27;4.77;;;1.17;;
73919;SDS011;62266;53.348;-1.496;2022-12-07T05:10:52;4.10;;;1.10;;
73919;SDS011;62266;53.348;-1.496;2022-12-07T05:13:18;5.90;;;1.20;;
73919;SDS011;62266;53.348;-1.496;2022-12-07T05:15:44;4.55;;;1.15;;
73919;SDS011;62266;53.348;-1.496;2022-12-07T05:18:10;4.70;;;0.90;;
73919;SDS011;62266;53.348;-1.496;2022-12-07T05:20:38;4.60;;;1.10;;
73919;SDS011;62266;53.348;-1.496;2022-12-07T05:23:07;3.20;;;0.95;;
73919;SDS011;62266;53.348;-1.496;2022-12-07T05:25:33;7.37;;;1.10;;
73919;SDS011;62266;53.348;-1.496;2022-12-07T05:27:59;4.53;;;0.70;;
73919;SDS011;62266;53.348;-1.496;2022-12-07T05:30:25;3.17;;;1.02;;
73919;SDS011;62266;53.348;-1.496;2022-12-07T05:32:51;1.83;;;0.70;;
73919;SDS011;62266;53.348;-1.496;2022-12-07T05:35:17;3.40;;;1.00;;
73919;SDS011;62266;53.348;-1.496;2022-12-07T05:37:43;4.50;;;0.80;;
73919;SDS011;62266;53.348;-1.496;2022-12-07T05:40:10;2.85;;;0.55;;
73919;SDS011;62266;53.348;-1.496;2022-12-07T05:42:38;4.97;;;1.15;;
73919;SDS011;62266;53.348;-1.496;2022-12-07T05:45:04;2.63;;;0.77;;
73919;SDS011;62266;53.348;-1.496;2022-12-07T05:47:30;3.17;;;0.73;;
73919;SDS011;62266;53.348;-1.496;2022-12-07T05:49:55;4.28;;;0.93;;
73919;SDS011;62266;53.348;-1.496;2022-12-07T05:52:22;3.47;;;0.90;;
73919;SDS011;62266;53.348;-1.496;2022-12-07T05:54:48;3.58;;;0.80;;
73919;SDS011;62266;53.348;-1.496;2022-12-07T05:57:20;2.35;;;0.90;;
73919;SDS011;62266;53.348;-1.496;2022-12-07T05:59:45;1.98;;;0.88;;
73919;SDS011;62266;53.348;-1.496;2022-12-07T06:02:14;2.43;;;0.80;;
73919;SDS011;62266;53.348;-1.496;2022-12-07T06:04:44;1.60;;;0.65;;
73919;SDS011;62266;53.348;-1.496;2022-12-07T06:07:13;4.22;;;0.70;;
73919;SDS011;62266;53.348;-1.496;2022-12-07T06:09:40;2.33;;;0.90;;
73919;SDS011;62266;53.348;-1.496;2022-12-07T06:12:08;1.70;;;0.93;;
73919;SDS011;62266;53.348;-1.496;2022-12-07T06:14:55;3.33;;;1.13;;
73919;SDS011;62266;53.348;-1.496;2022-12-07T06:17:20;2.90;;;0.93;;
73919;SDS011;62266;53.348;-1.496;2022-12-07T06:19:46;3.63;;;1.00;;
73919;SDS011;62266;53.348;-1.496;2022-12-07T06:22:11;1.23;;;0.80;;
73919;SDS011;62266;53.348;-1.496;2022-12-07T06:24:37;1.53;;;1.07;;
73919;SDS011;62266;53.348;-1.496;2022-12-07T06:27:03;4.47;;;1.73;;
73919;SDS011;62266;53.348;-1.496;2022-12-07T06:29:29;2.45;;;1.13;;
73919;SDS011;62266;53.348;-1.496;2022-12-07T06:31:55;4.33;;;1.07;;
73919;SDS011;62266;53.348;-1.496;2022-12-07T06:34:22;3.05;;;1.15;;
73919;SDS011;62266;53.348;-1.496;2022-12-07T06:36:48;3.30;;;1.40;;
73919;SDS011;62266;53.348;-1.496;2022-12-07T06:39:26;3.10;;;1.40;;
73919;SDS011;62266;53.348;-1.496;2022-12-07T06:41:52;1.92;;;0.80;;
73919;SDS011;62266;53.348;-1.496;2022-12-07T06:44:19;4.60;;;1.27;;
73919;SDS011;62266;53.348;-1.496;2022-12-07T06:46:44;4.57;;;1.55;;
73919;SDS011;62266;53.348;-1.496;2022-12-07T06:49:10;4.37;;;1.80;;
73919;SDS011;62266;53.348;-1.496;2022-12-07T06:51:36;4.40;;;1.57;;
73919;SDS011;62266;53.348;-1.496;2022-12-07T06:54:06;2.95;;;1.20;;
73919;SDS011;62266;53.348;-1.496;2022-12-07T06:56:32;3.80;;;1.95;;
73919;SDS011;62266;53.348;-1.496;2022-12-07T06:58:57;2.60;;;1.60;;
73919;SDS011;62266;53.348;-1.496;2022-12-07T07:01:23;4.10;;;1.70;;
73919;SDS011;62266;53.348;-1.496;2022-12-07T07:03:48;4.90;;;1.60;;
73919;SDS011;62266;53.348;-1.496;2022-12-07T07:06:14;3.63;;;1.83;;
73919;SDS011;62266;53.348;-1.496;2022-12-07T07:08:40;10.60;;;2.50;;
73919;SDS011;62266;53.348;-1.496;2022-12-07T07:11:06;3.08;;;1.98;;
73919;SDS011;62266;53.348;-1.496;2022-12-07T07:13:33;4.97;;;2.33;;
73919;SDS011;62266;53.348;-1.496;2022-12-07T07:15:59;6.25;;;2.53;;
73919;SDS011;62266;53.348;-1.496;2022-12-07T07:18:25;5.55;;;2.90;;
73919;SDS011;62266;53.348;-1.496;2022-12-07T07:20:51;5.87;;;2.13;;
73919;SDS011;62266;53.348;-1.496;2022-12-07T07:23:18;3.95;;;2.17;;
73919;SDS011;62266;53.348;-1.496;2022-12-07T07:25:44;6.32;;;2.60;;
73919;SDS011;62266;53.348;-1.496;2022-12-07T07:28:09;9.60;;;3.00;;
73919;SDS011;62266;53.348;-1.496;2022-12-07T07:30:35;5.23;;;2.50;;
73919;SDS011;62266;53.348;-1.496;2022-12-07T07:33:01;4.50;;;2.35;;
73919;SDS011;62266;53.348;-1.496;2022-12-07T07:35:28;8.23;;;3.03;;
73919;SDS011;62266;53.348;-1.496;2022-12-07T07:37:54;8.80;;;2.70;;
73919;SDS011;62266;53.348;-1.496;2022-12-07T07:40:20;7.15;;;2.75;;
73919;SDS011;62266;53.348;-1.496;2022-12-07T07:42:50;5.32;;;2.38;;
73919;SDS011;62266;53.348;-1.496;2022-12-07T07:45:18;4.90;;;3.03;;
73919;SDS011;62266;53.348;-1.496;2022-12-07T07:47:45;8.18;;;3.28;;
73919;SDS011;62266;53.348;-1.496;2022-12-07T07:50:10;7.77;;;2.60;;
73919;SDS011;62266;53.348;-1.496;2022-12-07T07:52:36;4.18;;;2.15;;
73919;SDS011;62266;53.348;-1.496;2022-12-07T07:55:02;4.25;;;2.30;;
73919;SDS011;62266;53.348;-1.496;2022-12-07T07:57:28;5.60;;;3.00;;
73919;SDS011;62266;53.348;-1.496;2022-12-07T07:59:53;6.83;;;3.20;;
73919;SDS011;62266;53.348;-1.496;2022-12-07T08:02:19;6.93;;;2.57;;
73919;SDS011;62266;53.348;-1.496;2022-12-07T08:04:45;6.60;;;2.80;;
73919;SDS011;62266;53.348;-1.496;2022-12-07T08:07:11;23.33;;;4.07;;
73919;SDS011;62266;53.348;-1.496;2022-12-07T08:09:38;15.00;;;4.25;;
73919;SDS011;62266;53.348;-1.496;2022-12-07T08:12:03;13.35;;;3.65;;
73919;SDS011;62266;53.348;-1.496;2022-12-07T08:14:29;15.97;;;3.43;;
73919;SDS011;62266;53.348;-1.496;2022-12-07T08:16:55;18.70;;;4.18;;
73919;SDS011;62266;53.348;-1.496;2022-12-07T08:19:21;12.75;;;4.35;;
73919;SDS011;62266;53.348;-1.496;2022-12-07T08:21:47;17.03;;;4.57;;
73919;SDS011;62266;53.348;-1.496;2022-12-07T08:24:13;15.20;;;4.80;;
73919;SDS011;62266;53.348;-1.496;2022-12-07T08:26:38;11.07;;;4.90;;
73919;SDS011;62266;53.348;-1.496;2022-12-07T08:29:04;16.88;;;5.25;;
73919;SDS011;62266;53.348;-1.496;2022-12-07T08:31:29;22.00;;;5.67;;
73919;SDS011;62266;53.348;-1.496;2022-12-07T08:33:55;18.52;;;4.47;;
73919;SDS011;62266;53.348;-1.496;2022-12-07T08:36:21;17.40;;;5.53;;
73919;SDS011;62266;53.348;-1.496;2022-12-07T08:38:47;8.52;;;3.00;;
73919;SDS011;62266;53.348;-1.496;2022-12-07T08:41:14;10.10;;;3.63;;
73919;SDS011;62266;53.348;-1.496;2022-12-07T08:43:39;11.37;;;3.07;;
73919;SDS011;62266;53.348;-1.496;2022-12-07T08:46:10;13.90;;;4.32;;
73919;SDS011;62266;53.348;-1.496;2022-12-07T08:48:46;9.57;;;3.43;;
73919;SDS011;62266;53.348;-1.496;2022-12-07T08:51:16;11.85;;;4.65;;
73919;SDS011;62266;53.348;-1.496;2022-12-07T08:53:42;12.02;;;4.57;;
73919;SDS011;62266;53.348;-1.496;2022-12-07T08:56:13;10.88;;;4.50;;
73919;SDS011;62266;53.348;-1.496;2022-12-07T08:58:39;11.00;;;4.50;;
73919;SDS011;62266;53.348;-1.496;2022-12-07T09:01:05;12.45;;;4.43;;
73919;SDS011;62266;53.348;-1.496;2022-12-07T09:03:30;10.60;;;4.33;;
73919;SDS011;62266;53.348;-1.496;2022-12-07T09:05:57;11.68;;;4.38;;
73919;SDS011;62266;53.348;-1.496;2022-12-07T09:08:23;8.10;;;4.18;;
73919;SDS011;62266;53.348;-1.496;2022-12-07T09:11:01;10.52;;;3.83;;
73919;SDS011;62266;53.348;-1.496;2022-12-07T09:13:27;8.60;;;3.63;;
73919;SDS011;62266;53.348;-1.496;2022-12-07T09:15:53;5.72;;;2.95;;
73919;SDS011;62266;53.348;-1.496;2022-12-07T09:18:18;8.83;;;3.13;;
73919;SDS011;62266;53.348;-1.496;2022-12-07T09:20:44;10.90;;;3.97;;
73919;SDS011;62266;53.348;-1.496;2022-12-07T09:23:10;11.33;;;3.80;;
73919;SDS011;62266;53.348;-1.496;2022-12-07T09:25:35;11.68;;;5.03;;
73919;SDS011;62266;53.348;-1.496;2022-12-07T09:28:01;12.60;;;5.93;;
73919;SDS011;62266;53.348;-1.496;2022-12-07T09:30:26;10.57;;;6.43;;
73919;SDS011;62266;53.348;-1.496;2022-12-07T09:32:53;10.32;;;5.88;;
73919;SDS011;62266;53.348;-1.496;2022-12-07T09:35:20;13.70;;;6.00;;
73919;SDS011;62266;53.348;-1.496;2022-12-07T09:37:45;13.30;;;6.18;;
73919;SDS011;62266;53.348;-1.496;2022-12-07T09:40:11;10.33;;;5.17;;
73919;SDS011;62266;53.348;-1.496;2022-12-07T09:42:38;10.77;;;5.60;;
73919;SDS011;62266;53.348;-1.496;2022-12-07T09:45:06;8.52;;;4.22;;
73919;SDS011;62266;53.348;-1.496;2022-12-07T09:47:35;8.32;;;3.17;;
73919;SDS011;62266;53.348;-1.496;2022-12-07T09:50:05;4.73;;;1.43;;
73919;SDS011;62266;53.348;-1.496;2022-12-07T09:52:35;2.72;;;1.10;;
73919;SDS011;62266;53.348;-1.496;2022-12-07T09:55:01;4.80;;;1.83;;
73919;SDS011;62266;53.348;-1.496;2022-12-07T09:57:30;4.13;;;1.20;;
73919;SDS011;62266;53.348;-1.496;2022-12-07T09:59:59;2.63;;;1.15;;
73919;SDS011;62266;53.348;-1.496;2022-12-07T10:02:37;3.28;;;1.02;;
73919;SDS011;62266;53.348;-1.496;2022-12-07T10:05:06;1.83;;;0.90;;
73919;SDS011;62266;53.348;-1.496;2022-12-07T10:07:32;5.35;;;1.08;;
73919;SDS011;62266;53.348;-1.496;2022-12-07T10:09:58;4.10;;;1.30;;
73919;SDS011;62266;53.348;-1.496;2022-12-07T10:12:23;2.47;;;0.80;;
73919;SDS011;62266;53.348;-1.496;2022-12-07T10:15:02;3.63;;;0.90;;
73919;SDS011;62266;53.348;-1.496;2022-12-07T10:17:35;1.80;;;0.85;;
73919;SDS011;62266;53.348;-1.496;2022-12-07T10:23:00;2.63;;;0.60;;
73919;SDS011;62266;53.348;-1.496;2022-12-07T10:25:34;2.92;;;0.70;;
73919;SDS011;62266;53.348;-1.496;2022-12-07T10:30:33;4.15;;;0.68;;
73919;SDS011;62266;53.348;-1.496;2022-12-07T10:33:27;3.88;;;0.65;;
73919;SDS011;62266;53.348;-1.496;2022-12-07T10:35:54;3.20;;;0.87;;
73919;SDS011;62266;53.348;-1.496;2022-12-07T10:38:20;3.42;;;0.77;;
73919;SDS011;62266;53.348;-1.496;2022-12-07T10:40:45;1.77;;;0.60;;
73919;SDS011;62266;53.348;-1.496;2022-12-07T10:48:28;1.83;;;0.70;;
73919;SDS011;62266;53.348;-1.496;2022-12-07T10:51:05;1.10;;;0.70;;
73919;SDS011;62266;53.348;-1.496;2022-12-07T10:54:20;2.15;;;1.00;;
73919;SDS011;62266;53.348;-1.496;2022-12-07T11:05:02;3.13;;;0.70;;
73919;SDS011;62266;53.348;-1.496;2022-12-07T11:07:44;2.50;;;0.70;;
73919;SDS011;62266;53.348;-1.496;2022-12-07T11:10:21;3.13;;;0.73;;
73919;SDS011;62266;53.348;-1.496;2022-12-07T11:13:10;2.33;;;0.53;;
73919;SDS011;62266;53.348;-1.496;2022-12-07T11:21:15;1.98;;;0.50;;
73919;SDS011;62266;53.348;-1.496;2022-12-07T11:24:06;6.47;;;0.90;;
73919;SDS011;62266;53.348;-1.496;2022-12-07T11:29:49;3.42;;;0.55;;
73919;SDS011;62266;53.348;-1.496;2022-12-07T11:32:22;2.65;;;0.60;;
73919;SDS011;62266;53.348;-1.496;2022-12-07T11:37:34;4.85;;;0.88;;
73919;SDS011;62266;53.348;-1.496;2022-12-07T11:40:05;2.57;;;0.60;;
73919;SDS011;62266;53.348;-1.496;2022-12-07T11:42:51;3.42;;;0.70;;
73919;SDS011;62266;53.348;-1.496;2022-12-07T11:45:29;3.85;;;0.60;;
73919;SDS011;62266;53.348;-1.496;2022-12-07T11:48:01;1.90;;;0.50;;
73919;SDS011;62266;53.348;-1.496;2022-12-07T11:50:42;1.58;;;0.93;;
73919;SDS011;62266;53.348;-1.496;2022-12-07T12:04:00;4.07;;;0.50;;
73919;SDS011;62266;53.348;-1.496;2022-12-07T12:06:39;2.20;;;0.32;;
73919;SDS011;62266;53.348;-1.496;2022-12-07T12:17:38;1.30;;;0.45;;
73919;SDS011;62266;53.348;-1.496;2022-12-07T12:23:41;2.60;;;0.63;;
73919;SDS011;62266;53.348;-1.496;2022-12-07T12:25:55;2.20;;;0.70;;
73919;SDS011;62266;53.348;-1.496;2022-12-07T12:28:30;3.22;;;0.65;;
73919;SDS011;62266;53.348;-1.496;2022-12-07T12:33:37;2.67;;;1.05;;
73919;SDS011;62266;53.348;-1.496;2022-12-07T12:46:54;3.92;;;0.75;;
73919;SDS011;62266;53.348;-1.496;2022-12-07T12:54:32;3.97;;;0.77;;
73919;SDS011;62266;53.348;-1.496;2022-12-07T12:57:06;2.38;;;0.55;;
73919;SDS011;62266;53.348;-1.496;2022-12-07T12:59:41;3.92;;;0.70;;
73919;SDS011;62266;53.348;-1.496;2022-12-07T13:12:56;1.58;;;0.52;;
73919;SDS011;62266;53.348;-1.496;2022-12-07T13:20:54;2.78;;;0.40;;
73919;SDS011;62266;53.348;-1.496;2022-12-07T13:23:25;3.42;;;1.05;;
73919;SDS011;62266;53.348;-1.496;2022-12-07T13:26:16;2.75;;;0.60;;
73919;SDS011;62266;53.348;-1.496;2022-12-07T13:28:44;1.70;;;0.63;;
73919;SDS011;62266;53.348;-1.496;2022-12-07T13:33:38;1.25;;;0.40;;
73919;SDS011;62266;53.348;-1.496;2022-12-07T13:36:04;1.33;;;0.33;;
73919;SDS011;62266;53.348;-1.496;2022-12-07T13:38:35;5.40;;;0.53;;
73919;SDS011;62266;53.348;-1.496;2022-12-07T13:43:49;3.85;;;0.70;;
73919;SDS011;62266;53.348;-1.496;2022-12-07T13:46:19;1.83;;;0.82;;
73919;SDS011;62266;53.348;-1.496;2022-12-07T13:48:50;3.53;;;1.00;;
73919;SDS011;62266;53.348;-1.496;2022-12-07T13:51:17;1.90;;;1.23;;
73919;SDS011;62266;53.348;-1.496;2022-12-07T13:53:46;3.22;;;1.02;;
73919;SDS011;62266;53.348;-1.496;2022-12-07T13:56:13;2.50;;;0.80;;
73919;SDS011;62266;53.348;-1.496;2022-12-07T13:58:40;3.50;;;0.93;;
73919;SDS011;62266;53.348;-1.496;2022-12-07T14:01:06;2.30;;;0.77;;
73919;SDS011;62266;53.348;-1.496;2022-12-07T14:03:32;5.67;;;1.00;;
73919;SDS011;62266;53.348;-1.496;2022-12-07T14:08:42;3.47;;;0.90;;
73919;SDS011;62266;53.348;-1.496;2022-12-07T14:11:11;2.92;;;0.98;;
73919;SDS011;62266;53.348;-1.496;2022-12-07T14:13:39;4.72;;;1.90;;
73919;SDS011;62266;53.348;-1.496;2022-12-07T14:16:30;3.43;;;0.90;;
73919;SDS011;62266;53.348;-1.496;2022-12-07T14:18:59;5.90;;;1.20;;
73919;SDS011;62266;53.348;-1.496;2022-12-07T14:21:27;1.83;;;1.20;;
73919;SDS011;62266;53.348;-1.496;2022-12-07T14:26:42;2.75;;;1.48;;
73919;SDS011;62266;53.348;-1.496;2022-12-07T14:31:52;3.30;;;1.50;;
73919;SDS011;62266;53.348;-1.496;2022-12-07T14:34:22;6.43;;;2.00;;
73919;SDS011;62266;53.348;-1.496;2022-12-07T14:36:49;3.25;;;1.55;;
73919;SDS011;62266;53.348;-1.496;2022-12-07T14:39:15;2.60;;;1.45;;
73919;SDS011;62266;53.348;-1.496;2022-12-07T14:41:40;6.43;;;1.90;;
73919;SDS011;62266;53.348;-1.496;2022-12-07T14:44:22;7.72;;;2.05;;
73919;SDS011;62266;53.348;-1.496;2022-12-07T14:46:49;4.28;;;2.10;;
73919;SDS011;62266;53.348;-1.496;2022-12-07T14:49:15;7.20;;;2.13;;
73919;SDS011;62266;53.348;-1.496;2022-12-07T14:51:40;4.70;;;2.40;;
73919;SDS011;62266;53.348;-1.496;2022-12-07T14:54:07;4.88;;;2.50;;
73919;SDS011;62266;53.348;-1.496;2022-12-07T14:56:39;6.77;;;2.77;;
73919;SDS011;62266;53.348;-1.496;2022-12-07T14:59:04;8.00;;;3.80;;
73919;SDS011;62266;53.348;-1.496;2022-12-07T15:01:30;8.27;;;4.27;;
73919;SDS011;62266;53.348;-1.496;2022-12-07T15:03:55;8.03;;;4.20;;
73919;SDS011;62266;53.348;-1.496;2022-12-07T15:06:21;7.13;;;4.53;;
73919;SDS011;62266;53.348;-1.496;2022-12-07T15:08:47;8.93;;;4.93;;
73919;SDS011;62266;53.348;-1.496;2022-12-07T15:11:16;10.90;;;5.10;;
73919;SDS011;62266;53.348;-1.496;2022-12-07T15:13:42;10.13;;;5.33;;
73919;SDS011;62266;53.348;-1.496;2022-12-07T15:16:26;9.98;;;5.50;;
73919;SDS011;62266;53.348;-1.496;2022-12-07T15:18:51;8.65;;;5.22;;
73919;SDS011;62266;53.348;-1.496;2022-12-07T15:21:17;19.17;;;6.47;;
73919;SDS011;62266;53.348;-1.496;2022-12-07T15:23:43;11.18;;;5.45;;
73919;SDS011;62266;53.348;-1.496;2022-12-07T15:26:12;10.43;;;5.20;;
73919;SDS011;62266;53.348;-1.496;2022-12-07T15:28:39;8.05;;;4.97;;
73919;SDS011;62266;53.348;-1.496;2022-12-07T15:31:12;9.63;;;5.50;;
73919;SDS011;62266;53.348;-1.496;2022-12-07T15:33:38;8.90;;;4.87;;
73919;SDS011;62266;53.348;-1.496;2022-12-07T15:36:04;9.40;;;5.38;;
73919;SDS011;62266;53.348;-1.496;2022-12-07T15:38:29;11.20;;;6.30;;
73919;SDS011;62266;53.348;-1.496;2022-12-07T15:40:55;8.43;;;4.88;;
73919;SDS011;62266;53.348;-1.496;2022-12-07T15:43:21;9.15;;;5.28;;
73919;SDS011;62266;53.348;-1.496;2022-12-07T15:46:05;10.18;;;4.88;;
73919;SDS011;62266;53.348;-1.496;2022-12-07T15:48:31;9.13;;;4.50;;
73919;SDS011;62266;53.348;-1.496;2022-12-07T15:51:06;7.20;;;4.07;;
73919;SDS011;62266;53.348;-1.496;2022-12-07T15:53:33;7.03;;;3.95;;
73919;SDS011;62266;53.348;-1.496;2022-12-07T15:55:59;7.82;;;4.57;;
73919;SDS011;62266;53.348;-1.496;2022-12-07T15:58:25;8.77;;;4.50;;
73919;SDS011;62266;53.348;-1.496;2022-12-07T16:00:51;8.63;;;4.35;;
73919;SDS011;62266;53.348;-1.496;2022-12-07T16:03:17;10.07;;;4.18;;
73919;SDS011;62266;53.348;-1.496;2022-12-07T16:05:48;9.33;;;4.83;;
73919;SDS011;62266;53.348;-1.496;2022-12-07T16:08:16;9.75;;;4.93;;
73919;SDS011;62266;53.348;-1.496;2022-12-07T16:10:42;8.75;;;4.72;;
73919;SDS011;62266;53.348;-1.496;2022-12-07T16:13:11;7.33;;;3.80;;
73919;SDS011;62266;53.348;-1.496;2022-12-07T16:15:39;10.30;;;4.50;;
73919;SDS011;62266;53.348;-1.496;2022-12-07T16:18:06;12.05;;;5.40;;
73919;SDS011;62266;53.348;-1.496;2022-12-07T16:20:32;12.23;;;5.73;;
73919;SDS011;62266;53.348;-1.496;2022-12-07T16:22:58;10.88;;;4.85;;
73919;SDS011;62266;53.348;-1.496;2022-12-07T16:25:23;9.38;;;4.47;;
73919;SDS011;62266;53.348;-1.496;2022-12-07T16:27:49;9.70;;;5.27;;
73919;SDS011;62266;53.348;-1.496;2022-12-07T16:30:16;8.82;;;4.90;;
73919;SDS011;62266;53.348;-1.496;2022-12-07T16:32:41;8.47;;;5.00;;
73919;SDS011;62266;53.348;-1.496;2022-12-07T16:35:07;9.30;;;4.70;;
73919;SDS011;62266;53.348;-1.496;2022-12-07T16:37:33;9.00;;;4.70;;
73919;SDS011;62266;53.348;-1.496;2022-12-07T16:39:59;7.60;;;4.32;;
73919;SDS011;62266;53.348;-1.496;2022-12-07T16:42:25;6.95;;;3.50;;
73919;SDS011;62266;53.348;-1.496;2022-12-07T16:44:52;8.77;;;3.37;;
73919;SDS011;62266;53.348;-1.496;2022-12-07T16:47:17;5.95;;;3.63;;
73919;SDS011;62266;53.348;-1.496;2022-12-07T16:49:43;7.73;;;3.73;;
73919;SDS011;62266;53.348;-1.496;2022-12-07T16:52:09;9.35;;;3.88;;
73919;SDS011;62266;53.348;-1.496;2022-12-07T16:54:35;7.07;;;4.15;;
73919;SDS011;62266;53.348;-1.496;2022-12-07T16:57:01;9.53;;;4.77;;
73919;SDS011;62266;53.348;-1.496;2022-12-07T16:59:27;7.13;;;3.38;;
73919;SDS011;62266;53.348;-1.496;2022-12-07T17:01:52;4.10;;;2.83;;
73919;SDS011;62266;53.348;-1.496;2022-12-07T17:04:20;4.88;;;3.00;;
73919;SDS011;62266;53.348;-1.496;2022-12-07T17:06:46;7.30;;;4.17;;
73919;SDS011;62266;53.348;-1.496;2022-12-07T17:09:11;7.50;;;3.38;;
73919;SDS011;62266;53.348;-1.496;2022-12-07T17:11:43;12.63;;;4.67;;